Amargosa Valley, Nevada
Current Conditions -  °F | °C
As of 2:52 AM on Thursday 23 Oct 2014 (Local Time) from KDRA Reporting Station
Clear Clear  
Wind Chill: 52°   Ceiling: Unl
Heat Index: 52°   Visibility: 10mi
Dew Point: 20°   Wind: 5mph
Humidity: 28%   Direction: 330°NNW
Pressure: 30.08"   Gusts: NA
Location:  36.64°N, 116.4°W
Report Text: KDRA 230952Z AUTO 33004KT 10SM CLR 11/M07 A3008 RMK AO2 SLP153 T01111067
Loading
Personal Weather Stations






























Interactive Weather Map
Tropical Storm Tracking
New forecast layout! Learn more

10-Day Weather Forecast

Advertisements
Track Severe Weather on mobile